sensor_id;sensor_type;location;lat;lon;timestamp;P1;durP1;ratioP1;P2;durP2;ratioP2
20324;SDS011;10320;49.482;11.256;2022-08-30T00:00:28;8.10;;;7.10;;
20324;SDS011;10320;49.482;11.256;2022-08-30T00:03:12;8.53;;;7.13;;
20324;SDS011;10320;49.482;11.256;2022-08-30T00:05:39;10.83;;;7.80;;
20324;SDS011;10320;49.482;11.256;2022-08-30T00:08:05;9.10;;;7.07;;
20324;SDS011;10320;49.482;11.256;2022-08-30T00:10:31;9.63;;;7.13;;
20324;SDS011;10320;49.482;11.256;2022-08-30T00:12:58;9.63;;;7.10;;
20324;SDS011;10320;49.482;11.256;2022-08-30T00:15:24;7.53;;;6.80;;
20324;SDS011;10320;49.482;11.256;2022-08-30T00:17:50;9.67;;;7.13;;
20324;SDS011;10320;49.482;11.256;2022-08-30T00:20:18;7.30;;;6.60;;
20324;SDS011;10320;49.482;11.256;2022-08-30T00:22:45;7.53;;;6.17;;
20324;SDS011;10320;49.482;11.256;2022-08-30T00:25:12;7.13;;;6.43;;
20324;SDS011;10320;49.482;11.256;2022-08-30T00:27:38;7.23;;;6.53;;
20324;SDS011;10320;49.482;11.256;2022-08-30T00:30:05;7.10;;;6.40;;
20324;SDS011;10320;49.482;11.256;2022-08-30T00:32:31;7.37;;;6.60;;
20324;SDS011;10320;49.482;11.256;2022-08-30T00:34:57;8.37;;;6.63;;
20324;SDS011;10320;49.482;11.256;2022-08-30T00:37:23;7.47;;;6.13;;
20324;SDS011;10320;49.482;11.256;2022-08-30T00:39:49;7.80;;;5.70;;
20324;SDS011;10320;49.482;11.256;2022-08-30T00:42:16;6.73;;;6.07;;
20324;SDS011;10320;49.482;11.256;2022-08-30T00:44:42;8.33;;;6.00;;
20324;SDS011;10320;49.482;11.256;2022-08-30T00:47:08;8.47;;;6.53;;
20324;SDS011;10320;49.482;11.256;2022-08-30T00:49:35;6.80;;;6.10;;
20324;SDS011;10320;49.482;11.256;2022-08-30T00:52:03;6.87;;;6.10;;
20324;SDS011;10320;49.482;11.256;2022-08-30T00:54:29;7.77;;;6.57;;
20324;SDS011;10320;49.482;11.256;2022-08-30T00:56:55;7.93;;;5.97;;
20324;SDS011;10320;49.482;11.256;2022-08-30T00:59:22;9.83;;;6.30;;
20324;SDS011;10320;49.482;11.256;2022-08-30T01:01:48;6.60;;;5.60;;
20324;SDS011;10320;49.482;11.256;2022-08-30T01:04:15;8.13;;;5.63;;
20324;SDS011;10320;49.482;11.256;2022-08-30T01:06:44;6.87;;;5.80;;
20324;SDS011;10320;49.482;11.256;2022-08-30T01:09:10;7.77;;;5.63;;
20324;SDS011;10320;49.482;11.256;2022-08-30T01:11:37;9.07;;;5.87;;
20324;SDS011;10320;49.482;11.256;2022-08-30T01:14:03;13.47;;;5.77;;
20324;SDS011;10320;49.482;11.256;2022-08-30T01:16:31;8.30;;;5.80;;
20324;SDS011;10320;49.482;11.256;2022-08-30T01:18:58;6.83;;;5.90;;
20324;SDS011;10320;49.482;11.256;2022-08-30T01:23:55;6.77;;;6.07;;
20324;SDS011;10320;49.482;11.256;2022-08-30T01:26:21;6.90;;;5.83;;
20324;SDS011;10320;49.482;11.256;2022-08-30T01:28:49;7.13;;;5.73;;
20324;SDS011;10320;49.482;11.256;2022-08-30T01:31:16;6.60;;;5.50;;
20324;SDS011;10320;49.482;11.256;2022-08-30T01:33:43;7.00;;;5.60;;
20324;SDS011;10320;49.482;11.256;2022-08-30T01:36:10;7.00;;;5.73;;
20324;SDS011;10320;49.482;11.256;2022-08-30T01:38:39;6.77;;;5.43;;
20324;SDS011;10320;49.482;11.256;2022-08-30T01:41:11;7.83;;;5.47;;
20324;SDS011;10320;49.482;11.256;2022-08-30T01:43:37;8.47;;;6.10;;
20324;SDS011;10320;49.482;11.256;2022-08-30T01:46:04;6.03;;;5.40;;
20324;SDS011;10320;49.482;11.256;2022-08-30T01:48:30;7.07;;;5.90;;
20324;SDS011;10320;49.482;11.256;2022-08-30T01:50:56;7.60;;;5.97;;
20324;SDS011;10320;49.482;11.256;2022-08-30T01:53:22;6.50;;;5.80;;
20324;SDS011;10320;49.482;11.256;2022-08-30T01:55:48;7.10;;;5.70;;
20324;SDS011;10320;49.482;11.256;2022-08-30T01:58:14;7.13;;;5.77;;
20324;SDS011;10320;49.482;11.256;2022-08-30T02:00:40;7.13;;;5.17;;
20324;SDS011;10320;49.482;11.256;2022-08-30T02:03:06;6.57;;;5.40;;
20324;SDS011;10320;49.482;11.256;2022-08-30T02:05:32;7.77;;;5.80;;
20324;SDS011;10320;49.482;11.256;2022-08-30T02:07:59;8.17;;;6.00;;
20324;SDS011;10320;49.482;11.256;2022-08-30T02:10:25;9.37;;;6.40;;
20324;SDS011;10320;49.482;11.256;2022-08-30T02:12:51;6.30;;;5.40;;
20324;SDS011;10320;49.482;11.256;2022-08-30T02:15:17;8.37;;;6.27;;
20324;SDS011;10320;49.482;11.256;2022-08-30T02:17:43;10.10;;;5.87;;
20324;SDS011;10320;49.482;11.256;2022-08-30T02:20:09;6.93;;;6.23;;
20324;SDS011;10320;49.482;11.256;2022-08-30T02:22:36;8.87;;;6.47;;
20324;SDS011;10320;49.482;11.256;2022-08-30T02:25:03;7.37;;;6.53;;
20324;SDS011;10320;49.482;11.256;2022-08-30T02:27:29;8.10;;;6.40;;
20324;SDS011;10320;49.482;11.256;2022-08-30T02:29:55;9.60;;;6.50;;
20324;SDS011;10320;49.482;11.256;2022-08-30T02:32:21;7.10;;;6.10;;
20324;SDS011;10320;49.482;11.256;2022-08-30T02:34:47;6.73;;;6.03;;
20324;SDS011;10320;49.482;11.256;2022-08-30T02:37:13;7.73;;;6.50;;
20324;SDS011;10320;49.482;11.256;2022-08-30T02:39:40;9.60;;;6.20;;
20324;SDS011;10320;49.482;11.256;2022-08-30T02:42:06;6.80;;;6.10;;
20324;SDS011;10320;49.482;11.256;2022-08-30T02:44:32;7.87;;;6.50;;
20324;SDS011;10320;49.482;11.256;2022-08-30T02:46:58;9.13;;;6.00;;
20324;SDS011;10320;49.482;11.256;2022-08-30T02:49:24;8.77;;;6.73;;
20324;SDS011;10320;49.482;11.256;2022-08-30T02:51:50;7.73;;;6.93;;
20324;SDS011;10320;49.482;11.256;2022-08-30T02:54:16;7.20;;;6.50;;
20324;SDS011;10320;49.482;11.256;2022-08-30T02:56:47;8.83;;;6.37;;
20324;SDS011;10320;49.482;11.256;2022-08-30T02:59:13;7.67;;;6.80;;
20324;SDS011;10320;49.482;11.256;2022-08-30T03:01:40;9.47;;;6.77;;
20324;SDS011;10320;49.482;11.256;2022-08-30T03:04:06;7.60;;;6.80;;
20324;SDS011;10320;49.482;11.256;2022-08-30T03:06:33;8.57;;;7.23;;
20324;SDS011;10320;49.482;11.256;2022-08-30T03:08:59;8.87;;;7.23;;
20324;SDS011;10320;49.482;11.256;2022-08-30T03:11:25;9.77;;;7.30;;
20324;SDS011;10320;49.482;11.256;2022-08-30T03:13:51;8.93;;;7.53;;
20324;SDS011;10320;49.482;11.256;2022-08-30T03:16:17;9.83;;;7.63;;
20324;SDS011;10320;49.482;11.256;2022-08-30T03:18:45;9.80;;;7.00;;
20324;SDS011;10320;49.482;11.256;2022-08-30T03:21:12;10.33;;;7.43;;
20324;SDS011;10320;49.482;11.256;2022-08-30T03:23:38;9.63;;;7.57;;
20324;SDS011;10320;49.482;11.256;2022-08-30T03:26:08;8.37;;;7.37;;
20324;SDS011;10320;49.482;11.256;2022-08-30T03:28:37;8.67;;;7.60;;
20324;SDS011;10320;49.482;11.256;2022-08-30T03:31:03;8.17;;;7.37;;
20324;SDS011;10320;49.482;11.256;2022-08-30T03:33:29;8.93;;;8.00;;
20324;SDS011;10320;49.482;11.256;2022-08-30T03:35:55;8.80;;;7.87;;
20324;SDS011;10320;49.482;11.256;2022-08-30T03:38:21;8.13;;;7.33;;
20324;SDS011;10320;49.482;11.256;2022-08-30T03:40:48;10.07;;;8.20;;
20324;SDS011;10320;49.482;11.256;2022-08-30T03:43:14;8.13;;;7.33;;
20324;SDS011;10320;49.482;11.256;2022-08-30T03:45:40;9.87;;;8.47;;
20324;SDS011;10320;49.482;11.256;2022-08-30T03:48:06;9.07;;;8.13;;
20324;SDS011;10320;49.482;11.256;2022-08-30T03:50:32;8.83;;;8.03;;
20324;SDS011;10320;49.482;11.256;2022-08-30T03:52:59;9.87;;;8.73;;
20324;SDS011;10320;49.482;11.256;2022-08-30T03:55:26;10.33;;;8.10;;
20324;SDS011;10320;49.482;11.256;2022-08-30T03:57:52;10.10;;;7.93;;
20324;SDS011;10320;49.482;11.256;2022-08-30T04:00:19;9.53;;;8.00;;
20324;SDS011;10320;49.482;11.256;2022-08-30T04:02:45;8.27;;;7.47;;
20324;SDS011;10320;49.482;11.256;2022-08-30T04:05:11;10.50;;;8.60;;
20324;SDS011;10320;49.482;11.256;2022-08-30T04:07:37;10.40;;;8.70;;
20324;SDS011;10320;49.482;11.256;2022-08-30T04:10:04;12.10;;;9.10;;
20324;SDS011;10320;49.482;11.256;2022-08-30T04:12:31;9.97;;;8.70;;
20324;SDS011;10320;49.482;11.256;2022-08-30T04:14:57;8.60;;;7.70;;
20324;SDS011;10320;49.482;11.256;2022-08-30T04:17:23;9.40;;;8.53;;
20324;SDS011;10320;49.482;11.256;2022-08-30T04:19:49;11.83;;;8.63;;
20324;SDS011;10320;49.482;11.256;2022-08-30T04:22:15;9.97;;;8.43;;
20324;SDS011;10320;49.482;11.256;2022-08-30T04:24:41;9.83;;;8.63;;
20324;SDS011;10320;49.482;11.256;2022-08-30T04:27:08;11.10;;;9.03;;
20324;SDS011;10320;49.482;11.256;2022-08-30T04:29:34;9.70;;;8.70;;
20324;SDS011;10320;49.482;11.256;2022-08-30T04:32:00;9.80;;;8.90;;
20324;SDS011;10320;49.482;11.256;2022-08-30T04:34:26;13.60;;;8.83;;
20324;SDS011;10320;49.482;11.256;2022-08-30T04:36:52;9.83;;;8.83;;
20324;SDS011;10320;49.482;11.256;2022-08-30T04:39:18;10.87;;;8.90;;
20324;SDS011;10320;49.482;11.256;2022-08-30T04:41:44;10.23;;;9.13;;
20324;SDS011;10320;49.482;11.256;2022-08-30T04:44:10;9.63;;;8.73;;
20324;SDS011;10320;49.482;11.256;2022-08-30T04:46:36;10.13;;;8.60;;
20324;SDS011;10320;49.482;11.256;2022-08-30T04:49:03;10.00;;;8.87;;
20324;SDS011;10320;49.482;11.256;2022-08-30T04:51:29;10.10;;;8.67;;
20324;SDS011;10320;49.482;11.256;2022-08-30T04:53:55;11.20;;;9.00;;
20324;SDS011;10320;49.482;11.256;2022-08-30T04:56:22;9.40;;;8.47;;
20324;SDS011;10320;49.482;11.256;2022-08-30T04:58:49;11.37;;;8.60;;
20324;SDS011;10320;49.482;11.256;2022-08-30T05:01:16;9.27;;;8.23;;
20324;SDS011;10320;49.482;11.256;2022-08-30T05:03:42;9.90;;;8.90;;
20324;SDS011;10320;49.482;11.256;2022-08-30T05:06:12;8.97;;;7.77;;
20324;SDS011;10320;49.482;11.256;2022-08-30T05:08:38;10.03;;;8.33;;
20324;SDS011;10320;49.482;11.256;2022-08-30T05:11:05;9.80;;;8.17;;
20324;SDS011;10320;49.482;11.256;2022-08-30T05:13:31;9.07;;;8.17;;
20324;SDS011;10320;49.482;11.256;2022-08-30T05:15:58;8.40;;;7.57;;
20324;SDS011;10320;49.482;11.256;2022-08-30T05:18:24;8.23;;;7.40;;
20324;SDS011;10320;49.482;11.256;2022-08-30T05:21:01;10.00;;;7.37;;
20324;SDS011;10320;49.482;11.256;2022-08-30T05:23:27;10.80;;;7.03;;
20324;SDS011;10320;49.482;11.256;2022-08-30T05:25:53;8.53;;;6.87;;
20324;SDS011;10320;49.482;11.256;2022-08-30T05:28:19;9.33;;;6.77;;
20324;SDS011;10320;49.482;11.256;2022-08-30T05:30:45;7.33;;;6.57;;
20324;SDS011;10320;49.482;11.256;2022-08-30T05:33:11;7.43;;;6.70;;
20324;SDS011;10320;49.482;11.256;2022-08-30T05:35:37;8.87;;;6.13;;
20324;SDS011;10320;49.482;11.256;2022-08-30T05:38:04;6.60;;;5.90;;
20324;SDS011;10320;49.482;11.256;2022-08-30T05:40:30;7.47;;;6.43;;
20324;SDS011;10320;49.482;11.256;2022-08-30T05:42:56;8.27;;;5.63;;
20324;SDS011;10320;49.482;11.256;2022-08-30T05:45:22;5.93;;;5.37;;
20324;SDS011;10320;49.482;11.256;2022-08-30T05:47:48;7.50;;;5.80;;
20324;SDS011;10320;49.482;11.256;2022-08-30T05:50:14;6.83;;;5.87;;
20324;SDS011;10320;49.482;11.256;2022-08-30T05:52:41;6.00;;;5.40;;
20324;SDS011;10320;49.482;11.256;2022-08-30T05:55:09;8.67;;;5.60;;
20324;SDS011;10320;49.482;11.256;2022-08-30T05:57:36;9.23;;;5.87;;
20324;SDS011;10320;49.482;11.256;2022-08-30T06:00:07;6.97;;;5.47;;
20324;SDS011;10320;49.482;11.256;2022-08-30T06:02:34;6.03;;;5.10;;
20324;SDS011;10320;49.482;11.256;2022-08-30T06:05:01;7.77;;;5.47;;
20324;SDS011;10320;49.482;11.256;2022-08-30T06:07:27;6.23;;;5.07;;
20324;SDS011;10320;49.482;11.256;2022-08-30T06:09:53;6.93;;;5.63;;
20324;SDS011;10320;49.482;11.256;2022-08-30T06:12:19;6.10;;;4.97;;
20324;SDS011;10320;49.482;11.256;2022-08-30T06:14:45;7.97;;;5.00;;
20324;SDS011;10320;49.482;11.256;2022-08-30T06:17:11;6.70;;;4.93;;
20324;SDS011;10320;49.482;11.256;2022-08-30T06:19:37;6.20;;;4.97;;
20324;SDS011;10320;49.482;11.256;2022-08-30T06:22:03;7.20;;;4.93;;
20324;SDS011;10320;49.482;11.256;2022-08-30T06:24:29;7.83;;;5.57;;
20324;SDS011;10320;49.482;11.256;2022-08-30T06:26:55;5.80;;;5.23;;
20324;SDS011;10320;49.482;11.256;2022-08-30T06:29:21;5.60;;;4.93;;
20324;SDS011;10320;49.482;11.256;2022-08-30T06:31:47;6.47;;;4.90;;
20324;SDS011;10320;49.482;11.256;2022-08-30T06:34:14;8.43;;;5.07;;
20324;SDS011;10320;49.482;11.256;2022-08-30T06:36:40;7.30;;;4.80;;
20324;SDS011;10320;49.482;11.256;2022-08-30T06:39:06;5.83;;;5.20;;
20324;SDS011;10320;49.482;11.256;2022-08-30T06:41:34;6.30;;;5.17;;
20324;SDS011;10320;49.482;11.256;2022-08-30T06:44:00;6.80;;;5.20;;
20324;SDS011;10320;49.482;11.256;2022-08-30T06:46:29;6.43;;;5.00;;
20324;SDS011;10320;49.482;11.256;2022-08-30T06:48:56;8.23;;;5.43;;
20324;SDS011;10320;49.482;11.256;2022-08-30T06:51:27;5.77;;;4.97;;
20324;SDS011;10320;49.482;11.256;2022-08-30T06:53:54;6.13;;;5.17;;
20324;SDS011;10320;49.482;11.256;2022-08-30T06:56:20;8.07;;;5.23;;
20324;SDS011;10320;49.482;11.256;2022-08-30T06:58:46;6.60;;;5.20;;
20324;SDS011;10320;49.482;11.256;2022-08-30T07:01:17;6.00;;;4.93;;
20324;SDS011;10320;49.482;11.256;2022-08-30T07:03:43;6.13;;;5.03;;
20324;SDS011;10320;49.482;11.256;2022-08-30T07:06:09;6.60;;;4.87;;
20324;SDS011;10320;49.482;11.256;2022-08-30T07:08:36;6.03;;;5.47;;
20324;SDS011;10320;49.482;11.256;2022-08-30T07:11:02;6.50;;;5.27;;
20324;SDS011;10320;49.482;11.256;2022-08-30T07:13:29;5.40;;;4.87;;
20324;SDS011;10320;49.482;11.256;2022-08-30T07:15:55;6.03;;;4.87;;
20324;SDS011;10320;49.482;11.256;2022-08-30T07:18:21;6.57;;;5.43;;
20324;SDS011;10320;49.482;11.256;2022-08-30T07:21:07;5.97;;;5.10;;
20324;SDS011;10320;49.482;11.256;2022-08-30T07:23:33;5.77;;;4.83;;
20324;SDS011;10320;49.482;11.256;2022-08-30T07:26:02;6.07;;;5.13;;
20324;SDS011;10320;49.482;11.256;2022-08-30T07:28:28;5.93;;;4.80;;
20324;SDS011;10320;49.482;11.256;2022-08-30T07:30:54;7.40;;;4.70;;
20324;SDS011;10320;49.482;11.256;2022-08-30T07:33:20;6.07;;;4.82;;
20324;SDS011;10320;49.482;11.256;2022-08-30T07:35:46;9.10;;;5.10;;
20324;SDS011;10320;49.482;11.256;2022-08-30T07:38:12;6.53;;;5.03;;
20324;SDS011;10320;49.482;11.256;2022-08-30T07:40:38;5.88;;;4.90;;
20324;SDS011;10320;49.482;11.256;2022-08-30T07:43:04;6.05;;;5.45;;
20324;SDS011;10320;49.482;11.256;2022-08-30T07:45:31;5.65;;;4.63;;
20324;SDS011;10320;49.482;11.256;2022-08-30T07:47:57;8.10;;;5.10;;
20324;SDS011;10320;49.482;11.256;2022-08-30T07:50:23;6.05;;;5.30;;
20324;SDS011;10320;49.482;11.256;2022-08-30T07:52:49;6.03;;;5.10;;
20324;SDS011;10320;49.482;11.256;2022-08-30T07:55:15;6.13;;;5.05;;
20324;SDS011;10320;49.482;11.256;2022-08-30T07:57:40;6.70;;;4.80;;
20324;SDS011;10320;49.482;11.256;2022-08-30T08:00:06;7.00;;;5.45;;
20324;SDS011;10320;49.482;11.256;2022-08-30T08:02:33;6.72;;;5.35;;
20324;SDS011;10320;49.482;11.256;2022-08-30T08:05:00;5.55;;;5.00;;
20324;SDS011;10320;49.482;11.256;2022-08-30T08:07:26;8.10;;;5.35;;
20324;SDS011;10320;49.482;11.256;2022-08-30T08:09:51;6.18;;;5.00;;
20324;SDS011;10320;49.482;11.256;2022-08-30T08:12:17;6.57;;;4.93;;
20324;SDS011;10320;49.482;11.256;2022-08-30T08:14:42;7.15;;;5.40;;
20324;SDS011;10320;49.482;11.256;2022-08-30T08:17:08;6.80;;;5.50;;
20324;SDS011;10320;49.482;11.256;2022-08-30T08:19:34;6.72;;;5.60;;
20324;SDS011;10320;49.482;11.256;2022-08-30T08:21:59;8.90;;;5.90;;
20324;SDS011;10320;49.482;11.256;2022-08-30T08:24:26;7.70;;;6.43;;
20324;SDS011;10320;49.482;11.256;2022-08-30T08:26:51;8.07;;;6.78;;
20324;SDS011;10320;49.482;11.256;2022-08-30T08:29:17;8.50;;;5.85;;
20324;SDS011;10320;49.482;11.256;2022-08-30T08:31:43;9.30;;;7.20;;
20324;SDS011;10320;49.482;11.256;2022-08-30T08:34:10;8.20;;;6.32;;
20324;SDS011;10320;49.482;11.256;2022-08-30T08:36:37;8.27;;;6.22;;
20324;SDS011;10320;49.482;11.256;2022-08-30T08:39:04;7.78;;;5.50;;
20324;SDS011;10320;49.482;11.256;2022-08-30T08:44:35;8.63;;;6.20;;
20324;SDS011;10320;49.482;11.256;2022-08-30T08:47:25;10.88;;;6.70;;
20324;SDS011;10320;49.482;11.256;2022-08-30T08:50:15;7.35;;;6.32;;
20324;SDS011;10320;49.482;11.256;2022-08-30T08:55:48;8.40;;;6.70;;
20324;SDS011;10320;49.482;11.256;2022-08-30T08:58:21;7.65;;;6.63;;
20324;SDS011;10320;49.482;11.256;2022-08-30T09:00:49;6.85;;;5.90;;
20324;SDS011;10320;49.482;11.256;2022-08-30T09:03:15;8.20;;;6.03;;
20324;SDS011;10320;49.482;11.256;2022-08-30T09:05:45;8.15;;;6.30;;
20324;SDS011;10320;49.482;11.256;2022-08-30T09:08:13;5.93;;;4.90;;
20324;SDS011;10320;49.482;11.256;2022-08-30T09:10:40;7.43;;;5.28;;
20324;SDS011;10320;49.482;11.256;2022-08-30T09:13:14;5.75;;;5.13;;
20324;SDS011;10320;49.482;11.256;2022-08-30T09:15:40;5.68;;;5.18;;
20324;SDS011;10320;49.482;11.256;2022-08-30T09:18:06;5.32;;;4.82;;
20324;SDS011;10320;49.482;11.256;2022-08-30T09:20:44;5.32;;;4.82;;
20324;SDS011;10320;49.482;11.256;2022-08-30T09:25:54;7.60;;;5.20;;
20324;SDS011;10320;49.482;11.256;2022-08-30T09:29:04;5.68;;;4.75;;
20324;SDS011;10320;49.482;11.256;2022-08-30T09:31:22;5.03;;;4.53;;
20324;SDS011;10320;49.482;11.256;2022-08-30T09:34:08;5.43;;;4.43;;
20324;SDS011;10320;49.482;11.256;2022-08-30T09:36:47;4.75;;;4.25;;
20324;SDS011;10320;49.482;11.256;2022-08-30T09:39:33;5.20;;;4.70;;
20324;SDS011;10320;49.482;11.256;2022-08-30T09:42:24;5.38;;;4.40;;
20324;SDS011;10320;49.482;11.256;2022-08-30T09:44:51;6.95;;;4.40;;
20324;SDS011;10320;49.482;11.256;2022-08-30T09:47:59;6.63;;;4.05;;
20324;SDS011;10320;49.482;11.256;2022-08-30T09:58:28;6.85;;;4.72;;
20324;SDS011;10320;49.482;11.256;2022-08-30T10:23:43;4.68;;;3.20;;
20324;SDS011;10320;49.482;11.256;2022-08-30T10:26:12;3.72;;;3.20;;
20324;SDS011;10320;49.482;11.256;2022-08-30T10:28:50;6.22;;;3.53;;
20324;SDS011;10320;49.482;11.256;2022-08-30T10:34:25;5.43;;;3.50;;
20324;SDS011;10320;49.482;11.256;2022-08-30T10:36:58;4.40;;;3.40;;
20324;SDS011;10320;49.482;11.256;2022-08-30T10:39:30;4.43;;;3.55;;
20324;SDS011;10320;49.482;11.256;2022-08-30T10:42:05;4.85;;;3.30;;
20324;SDS011;10320;49.482;11.256;2022-08-30T10:44:38;3.97;;;3.58;;
20324;SDS011;10320;49.482;11.256;2022-08-30T10:47:27;3.92;;;3.50;;
20324;SDS011;10320;49.482;11.256;2022-08-30T10:50:04;3.70;;;3.40;;
20324;SDS011;10320;49.482;11.256;2022-08-30T10:57:32;5.10;;;3.83;;
20324;SDS011;10320;49.482;11.256;2022-08-30T11:00:06;3.80;;;3.50;;
20324;SDS011;10320;49.482;11.256;2022-08-30T11:11:11;3.90;;;3.40;;
20324;SDS011;10320;49.482;11.256;2022-08-30T11:13:39;3.78;;;3.38;;
20324;SDS011;10320;49.482;11.256;2022-08-30T11:16:07;5.00;;;3.20;;
20324;SDS011;10320;49.482;11.256;2022-08-30T11:18:49;5.55;;;4.20;;
20324;SDS011;10320;49.482;11.256;2022-08-30T11:21:50;3.97;;;3.47;;
20324;SDS011;10320;49.482;11.256;2022-08-30T11:24:11;3.72;;;3.13;;
20324;SDS011;10320;49.482;11.256;2022-08-30T11:31:53;4.38;;;3.97;;
20324;SDS011;10320;49.482;11.256;2022-08-30T11:40:08;4.35;;;3.30;;
20324;SDS011;10320;49.482;11.256;2022-08-30T11:42:46;3.85;;;3.35;;
20324;SDS011;10320;49.482;11.256;2022-08-30T11:47:52;3.63;;;3.33;;
20324;SDS011;10320;49.482;11.256;2022-08-30T12:01:13;4.47;;;3.28;;
20324;SDS011;10320;49.482;11.256;2022-08-30T12:06:55;3.88;;;3.58;;
20324;SDS011;10320;49.482;11.256;2022-08-30T12:15:24;3.92;;;2.88;;
20324;SDS011;10320;49.482;11.256;2022-08-30T12:18:11;4.68;;;3.50;;
20324;SDS011;10320;49.482;11.256;2022-08-30T12:20:51;5.22;;;3.25;;
20324;SDS011;10320;49.482;11.256;2022-08-30T12:23:32;4.97;;;3.38;;
20324;SDS011;10320;49.482;11.256;2022-08-30T12:28:48;4.35;;;3.35;;
20324;SDS011;10320;49.482;11.256;2022-08-30T12:31:18;3.90;;;3.30;;
20324;SDS011;10320;49.482;11.256;2022-08-30T12:33:48;4.68;;;3.30;;
20324;SDS011;10320;49.482;11.256;2022-08-30T12:36:32;4.05;;;3.45;;
20324;SDS011;10320;49.482;11.256;2022-08-30T12:39:07;4.90;;;3.55;;
20324;SDS011;10320;49.482;11.256;2022-08-30T12:41:38;4.65;;;3.40;;
20324;SDS011;10320;49.482;11.256;2022-08-30T12:44:06;4.47;;;2.90;;
20324;SDS011;10320;49.482;11.256;2022-08-30T12:46:36;3.40;;;3.10;;
20324;SDS011;10320;49.482;11.256;2022-08-30T12:49:02;3.72;;;3.30;;
20324;SDS011;10320;49.482;11.256;2022-08-30T12:51:38;3.30;;;3.00;;
20324;SDS011;10320;49.482;11.256;2022-08-30T12:54:17;3.20;;;2.90;;
20324;SDS011;10320;49.482;11.256;2022-08-30T12:56:50;4.07;;;3.35;;
20324;SDS011;10320;49.482;11.256;2022-08-30T13:02:16;3.42;;;3.08;;
20324;SDS011;10320;49.482;11.256;2022-08-30T13:04:46;6.07;;;3.10;;
20324;SDS011;10320;49.482;11.256;2022-08-30T13:07:26;3.05;;;2.80;;
20324;SDS011;10320;49.482;11.256;2022-08-30T13:10:07;3.67;;;3.05;;
20324;SDS011;10320;49.482;11.256;2022-08-30T13:12:57;3.05;;;2.75;;
20324;SDS011;10320;49.482;11.256;2022-08-30T13:15:29;3.30;;;3.00;;
20324;SDS011;10320;49.482;11.256;2022-08-30T13:18:15;3.13;;;2.70;;
20324;SDS011;10320;49.482;11.256;2022-08-30T13:20:43;3.88;;;2.70;;
20324;SDS011;10320;49.482;11.256;2022-08-30T13:23:19;4.00;;;3.20;;
20324;SDS011;10320;49.482;11.256;2022-08-30T13:25:47;3.88;;;3.40;;
20324;SDS011;10320;49.482;11.256;2022-08-30T13:28:13;4.95;;;2.88;;
20324;SDS011;10320;49.482;11.256;2022-08-30T13:30:39;3.50;;;3.20;;
20324;SDS011;10320;49.482;11.256;2022-08-30T13:33:04;3.75;;;3.13;;
20324;SDS011;10320;49.482;11.256;2022-08-30T13:35:30;3.38;;;2.83;;
20324;SDS011;10320;49.482;11.256;2022-08-30T13:37:56;3.10;;;2.80;;
20324;SDS011;10320;49.482;11.256;2022-08-30T13:40:24;5.13;;;2.80;;
20324;SDS011;10320;49.482;11.256;2022-08-30T13:42:50;3.17;;;2.88;;
20324;SDS011;10320;49.482;11.256;2022-08-30T13:45:16;3.20;;;2.83;;
20324;SDS011;10320;49.482;11.256;2022-08-30T13:47:44;3.47;;;2.72;;
20324;SDS011;10320;49.482;11.256;2022-08-30T13:50:13;3.25;;;2.70;;
20324;SDS011;10320;49.482;11.256;2022-08-30T13:52:39;3.78;;;2.70;;
20324;SDS011;10320;49.482;11.256;2022-08-30T13:55:05;2.78;;;2.58;;
20324;SDS011;10320;49.482;11.256;2022-08-30T13:57:31;3.65;;;2.83;;
20324;SDS011;10320;49.482;11.256;2022-08-30T13:59:58;3.17;;;2.75;;
20324;SDS011;10320;49.482;11.256;2022-08-30T14:02:23;2.72;;;2.53;;
20324;SDS011;10320;49.482;11.256;2022-08-30T14:04:49;3.28;;;2.92;;
20324;SDS011;10320;49.482;11.256;2022-08-30T14:07:15;2.90;;;2.70;;
20324;SDS011;10320;49.482;11.256;2022-08-30T14:09:40;2.95;;;2.60;;
20324;SDS011;10320;49.482;11.256;2022-08-30T14:12:06;3.05;;;2.78;;
20324;SDS011;10320;49.482;11.256;2022-08-30T14:14:32;3.38;;;3.03;;
20324;SDS011;10320;49.482;11.256;2022-08-30T14:16:58;2.85;;;2.50;;
20324;SDS011;10320;49.482;11.256;2022-08-30T14:19:23;2.80;;;2.60;;
20324;SDS011;10320;49.482;11.256;2022-08-30T14:21:49;3.30;;;2.78;;
20324;SDS011;10320;49.482;11.256;2022-08-30T14:24:15;3.25;;;2.45;;
20324;SDS011;10320;49.482;11.256;2022-08-30T14:26:42;3.10;;;2.40;;
20324;SDS011;10320;49.482;11.256;2022-08-30T14:29:13;2.60;;;2.40;;
20324;SDS011;10320;49.482;11.256;2022-08-30T14:31:40;3.13;;;2.60;;
20324;SDS011;10320;49.482;11.256;2022-08-30T14:34:11;3.45;;;2.40;;
20324;SDS011;10320;49.482;11.256;2022-08-30T14:36:37;2.55;;;2.35;;
20324;SDS011;10320;49.482;11.256;2022-08-30T14:39:06;2.78;;;2.30;;
20324;SDS011;10320;49.482;11.256;2022-08-30T14:41:39;4.55;;;2.60;;
20324;SDS011;10320;49.482;11.256;2022-08-30T14:44:05;2.90;;;2.70;;
20324;SDS011;10320;49.482;11.256;2022-08-30T14:46:31;3.15;;;2.85;;
20324;SDS011;10320;49.482;11.256;2022-08-30T14:48:57;3.42;;;3.05;;
20324;SDS011;10320;49.482;11.256;2022-08-30T14:51:23;2.92;;;2.63;;
20324;SDS011;10320;49.482;11.256;2022-08-30T14:53:50;3.08;;;2.80;;
20324;SDS011;10320;49.482;11.256;2022-08-30T14:56:17;3.33;;;3.00;;
20324;SDS011;10320;49.482;11.256;2022-08-30T14:58:43;2.58;;;2.38;;
20324;SDS011;10320;49.482;11.256;2022-08-30T15:01:10;4.57;;;2.92;;
20324;SDS011;10320;49.482;11.256;2022-08-30T15:03:37;5.40;;;3.50;;
20324;SDS011;10320;49.482;11.256;2022-08-30T15:06:04;3.65;;;3.10;;
20324;SDS011;10320;49.482;11.256;2022-08-30T15:08:31;3.53;;;3.00;;
20324;SDS011;10320;49.482;11.256;2022-08-30T15:10:57;3.65;;;2.80;;
20324;SDS011;10320;49.482;11.256;2022-08-30T15:13:23;3.83;;;3.00;;
20324;SDS011;10320;49.482;11.256;2022-08-30T15:15:50;3.85;;;3.28;;
20324;SDS011;10320;49.482;11.256;2022-08-30T15:18:16;3.67;;;3.10;;
20324;SDS011;10320;49.482;11.256;2022-08-30T15:20:45;3.10;;;2.85;;
20324;SDS011;10320;49.482;11.256;2022-08-30T15:23:12;4.80;;;3.15;;
20324;SDS011;10320;49.482;11.256;2022-08-30T15:25:38;3.30;;;3.00;;
20324;SDS011;10320;49.482;11.256;2022-08-30T15:28:04;3.15;;;2.85;;
20324;SDS011;10320;49.482;11.256;2022-08-30T15:30:30;4.28;;;3.00;;
20324;SDS011;10320;49.482;11.256;2022-08-30T15:32:56;4.10;;;3.33;;
20324;SDS011;10320;49.482;11.256;2022-08-30T15:35:22;3.28;;;2.97;;
20324;SDS011;10320;49.482;11.256;2022-08-30T15:37:48;3.85;;;3.17;;
20324;SDS011;10320;49.482;11.256;2022-08-30T15:40:14;3.15;;;2.85;;
20324;SDS011;10320;49.482;11.256;2022-08-30T15:42:40;3.90;;;3.00;;
20324;SDS011;10320;49.482;11.256;2022-08-30T15:45:08;2.83;;;2.63;;
20324;SDS011;10320;49.482;11.256;2022-08-30T15:47:35;2.95;;;2.75;;
20324;SDS011;10320;49.482;11.256;2022-08-30T15:50:02;3.95;;;3.00;;
20324;SDS011;10320;49.482;11.256;2022-08-30T15:52:29;2.95;;;2.38;;
20324;SDS011;10320;49.482;11.256;2022-08-30T15:54:55;3.10;;;2.80;;
20324;SDS011;10320;49.482;11.256;2022-08-30T15:57:22;3.13;;;2.75;;
20324;SDS011;10320;49.482;11.256;2022-08-30T15:59:48;5.47;;;3.00;;
20324;SDS011;10320;49.482;11.256;2022-08-30T16:02:14;2.78;;;2.55;;
20324;SDS011;10320;49.482;11.256;2022-08-30T16:04:40;3.22;;;3.00;;
20324;SDS011;10320;49.482;11.256;2022-08-30T16:07:06;4.53;;;3.00;;
20324;SDS011;10320;49.482;11.256;2022-08-30T16:09:33;4.32;;;3.10;;
20324;SDS011;10320;49.482;11.256;2022-08-30T16:12:00;3.30;;;2.90;;
20324;SDS011;10320;49.482;11.256;2022-08-30T16:14:26;3.70;;;2.80;;
20324;SDS011;10320;49.482;11.256;2022-08-30T16:16:54;3.28;;;2.75;;